Time;durP1;ratioP1;P1;durP2;ratioP2;P2;SDS_P1;SDS_P2;PMS_P1;PMS_P2;Temp;Humidity;BMP_temperature;BMP_pressure;BME280_temperature;BME280_humidity;BME280_pressure;Samples;Min_cycle;Max_cycle;Signal;HPM_P1;HPM_P2
2024/03/19 00:01:29;;;;;;;4.13;1.48;;;10.70;99.90;;;10.19;100.00;101369.16;4149498;28;20040;-69
2024/03/19 00:03:30;;;;;;;5.90;1.88;;;10.70;99.90;;;10.21;100.00;101369.03;4137414;28;20041;-69
2024/03/19 00:05:31;;;;;;;4.70;2.15;;;10.80;99.90;;;10.20;100.00;101362.94;4155111;28;20032;-69
2024/03/19 00:07:32;;;;;;;9.30;2.03;;;10.80;99.90;;;10.24;100.00;101366.13;4137598;28;20027;-69
2024/03/19 00:09:33;;;;;;;9.32;1.98;;;10.80;99.90;;;10.23;100.00;101362.66;4155031;28;20087;-69
2024/03/19 00:11:34;;;;;;;6.05;1.63;;;10.80;99.90;;;10.27;100.00;101371.13;4124301;28;20030;-69
2024/03/19 00:13:35;;;;;;;4.20;1.55;;;10.80;99.90;;;10.28;100.00;101365.69;4121174;28;20066;-70
2024/03/19 00:15:36;;;;;;;7.93;1.63;;;10.90;99.90;;;10.30;100.00;101366.41;4138852;28;20026;-69
2024/03/19 00:17:37;;;;;;;7.78;1.98;;;10.90;99.90;;;10.33;100.00;101365.31;4138795;28;20026;-69
2024/03/19 00:19:38;;;;;;;3.45;1.67;;;10.90;99.90;;;10.33;100.00;101360.03;4138587;28;20019;-69
2024/03/19 00:21:40;;;;;;;6.03;1.40;;;10.90;99.90;;;10.36;100.00;101367.66;4137182;28;20031;-69
2024/03/19 00:23:41;;;;;;;4.47;1.33;;;10.90;99.90;;;10.35;100.00;101368.63;4138720;28;20018;-69
2024/03/19 00:25:42;;;;;;;2.25;1.08;;;10.90;99.90;;;10.35;100.00;101368.63;4137228;28;20033;-69
2024/03/19 00:27:43;;;;;;;6.88;1.85;;;10.90;99.90;;;10.34;100.00;101357.25;4138169;28;20046;-69
2024/03/19 00:29:44;;;;;;;6.25;1.65;;;10.90;99.90;;;10.37;100.00;101364.88;4137266;28;20034;-69
2024/03/19 00:31:44;;;;;;;4.25;1.52;;;10.90;99.90;;;10.37;100.00;101356.97;4120747;28;20106;-69
2024/03/19 00:33:47;;;;;;;6.68;1.83;;;10.90;99.90;;;10.41;100.00;101373.34;4121295;28;20019;-69
2024/03/19 00:35:49;;;;;;;9.63;1.70;;;11.00;99.90;;;10.41;100.00;101368.91;4135084;28;20033;-69
2024/03/19 00:37:50;;;;;;;6.63;1.52;;;11.00;99.90;;;10.45;100.00;101372.09;4139960;28;20472;-69
2024/03/19 00:39:51;;;;;;;3.80;1.50;;;11.00;99.90;;;10.46;100.00;101371.09;4154552;28;20026;-69
2024/03/19 00:41:51;;;;;;;5.82;1.20;;;11.00;99.90;;;10.47;100.00;101367.50;4139180;28;20053;-69
2024/03/19 00:43:54;;;;;;;3.00;1.23;;;11.10;99.90;;;10.50;100.00;101364.59;4138229;28;20027;-69
2024/03/19 00:45:55;;;;;;;3.92;1.83;;;11.10;99.90;;;10.48;100.00;101367.34;4136640;28;20484;-69
2024/03/19 00:47:56;;;;;;;4.88;1.83;;;11.10;99.90;;;10.52;100.00;101375.81;4138350;28;20022;-69
2024/03/19 00:49:57;;;;;;;5.90;2.50;;;11.10;99.90;;;10.55;100.00;101375.53;4138232;28;20113;-69
2024/03/19 00:51:58;;;;;;;6.85;1.30;;;11.10;99.90;;;10.55;100.00;101359.72;4138026;28;20023;-69
2024/03/19 00:53:59;;;;;;;8.05;1.83;;;11.10;99.90;;;10.60;100.00;101368.06;4136785;28;20022;-69
2024/03/19 00:56:01;;;;;;;11.85;2.05;;;11.10;99.90;;;10.57;100.00;101352.53;4138093;28;20034;-69
2024/03/19 00:58:02;;;;;;;9.00;2.40;;;11.10;99.90;;;10.58;100.00;101348.88;4137874;28;20450;-69
2024/03/19 01:00:11;;;;;;;6.88;1.75;;;11.20;99.90;;;10.59;100.00;101347.09;4137896;28;20022;-69
2024/03/19 01:02:12;;;;;;;5.50;1.55;;;11.20;99.90;;;10.59;100.00;101350.56;4108962;28;20053;-69
2024/03/19 01:04:13;;;;;;;5.32;1.75;;;11.20;99.90;;;10.60;100.00;101352.22;4136683;28;20473;-69
2024/03/19 01:06:14;;;;;;;7.80;1.63;;;11.20;99.90;;;10.60;100.00;101352.22;4137885;28;20034;-69
2024/03/19 01:08:15;;;;;;;4.63;1.85;;;11.20;99.90;;;10.63;100.00;101351.13;4137783;28;20026;-69
2024/03/19 01:10:17;;;;;;;5.93;1.25;;;11.20;99.90;;;10.65;100.00;101355.28;4137623;28;20038;-70
2024/03/19 01:12:18;;;;;;;7.28;2.15;;;11.20;99.90;;;10.65;100.00;101354.44;4137649;28;20474;-69
2024/03/19 01:14:20;;;;;;;7.80;1.65;;;11.20;99.90;;;10.66;100.00;101359.59;4137796;28;20030;-69
2024/03/19 01:16:20;;;;;;;5.85;1.70;;;11.20;99.90;;;10.68;100.00;101360.25;4137686;28;20019;-69
2024/03/19 01:18:21;;;;;;;3.42;1.30;;;11.20;99.90;;;10.67;100.00;101350.69;4137725;28;20128;-69
2024/03/19 01:20:22;;;;;;;5.88;1.38;;;11.30;99.90;;;10.65;100.00;101346.53;4135940;28;20076;-69
2024/03/19 01:22:23;;;;;;;5.70;1.70;;;11.30;99.90;;;10.66;100.00;101341.13;4137650;28;20033;-69
2024/03/19 01:24:24;;;;;;;7.38;2.20;;;11.30;99.90;;;10.66;100.00;101341.13;4136453;28;20113;-69
2024/03/19 01:26:25;;;;;;;3.83;1.20;;;11.30;99.90;;;10.68;100.00;101344.44;4120301;28;20040;-69
2024/03/19 01:28:26;;;;;;;8.90;1.52;;;11.30;99.90;;;10.68;100.00;101336.53;4119942;28;20115;-69
2024/03/19 01:30:27;;;;;;;4.97;1.30;;;11.30;99.90;;;10.69;100.00;101340.84;4104130;29;20039;-69
2024/03/19 01:32:28;;;;;;;7.75;1.63;;;11.30;99.90;;;10.69;100.00;101335.56;4137298;28;20518;-69
2024/03/19 01:34:29;;;;;;;7.78;1.58;;;11.30;99.90;;;10.69;100.00;101332.09;4137261;28;20037;-69
2024/03/19 01:36:29;;;;;;;8.45;1.50;;;11.30;99.90;;;10.67;100.00;101336.66;4137475;28;20034;-69
2024/03/19 01:38:30;;;;;;;6.57;1.92;;;11.20;99.90;;;10.62;100.00;101334.44;4145140;28;20433;-69
2024/03/19 01:40:31;;;;;;;4.47;1.27;;;11.20;99.90;;;10.61;100.00;101330.13;4150420;28;20030;-69
2024/03/19 01:42:32;;;;;;;6.63;2.00;;;11.20;99.90;;;10.62;100.00;101331.81;4135664;28;20034;-69
2024/03/19 01:44:33;;;;;;;9.13;1.52;;;11.20;99.90;;;10.63;100.00;101336.13;4137112;28;20030;-69
2024/03/19 01:46:34;;;;;;;5.43;1.63;;;11.20;99.90;;;10.61;100.00;101339.84;4136043;28;20042;-69
2024/03/19 01:48:36;;;;;;;2.88;1.17;;;11.20;99.90;;;10.62;100.00;101352.06;4137185;28;20031;-69
2024/03/19 01:50:38;;;;;;;8.20;1.52;;;11.20;99.90;;;10.61;100.00;101338.03;4136687;28;20023;-69
2024/03/19 01:52:54;;;;;;;6.03;1.60;;;11.20;99.90;;;10.60;100.00;101338.22;4136265;28;20061;-69
2024/03/19 01:54:55;;;;;;;4.75;0.90;;;11.20;99.90;;;10.60;100.00;101333.75;4136049;28;20026;-69
2024/03/19 01:56:56;;;;;;;6.68;1.55;;;11.20;99.90;;;10.61;100.00;101334.56;4136366;28;20026;-69
2024/03/19 01:58:59;;;;;;;5.80;1.98;;;11.20;99.90;;;10.63;100.00;101333.47;4135694;28;20026;-69
2024/03/19 02:00:59;;;;;;;5.10;1.85;;;11.20;99.90;;;10.63;100.00;101335.28;4137151;28;20418;-69
2024/03/19 02:03:00;;;;;;;4.72;2.05;;;11.20;99.90;;;10.65;100.00;101341.25;4137027;28;20041;-69
2024/03/19 02:05:04;;;;;;;7.75;1.50;;;11.20;99.90;;;10.63;100.00;101333.47;4136960;28;20034;-69
2024/03/19 02:07:05;;;;;;;5.50;1.42;;;11.20;99.90;;;10.59;100.00;101324.19;4135862;28;20106;-69
2024/03/19 02:09:09;;;;;;;4.22;1.10;;;11.20;99.90;;;10.65;100.00;101326.25;4136977;28;20030;-69
2024/03/19 02:11:10;;;;;;;7.28;1.58;;;11.20;99.90;;;10.64;100.00;101321.94;4135815;28;20033;-69
2024/03/19 02:13:11;;;;;;;5.88;1.67;;;11.20;99.90;;;10.67;100.00;101329.56;4136720;28;20031;-69
2024/03/19 02:15:11;;;;;;;7.55;1.65;;;11.20;99.90;;;10.63;100.00;101322.94;4136719;28;20517;-69
2024/03/19 02:17:12;;;;;;;5.00;2.25;;;11.20;99.90;;;10.60;100.00;101317.94;4135934;28;20049;-69
2024/03/19 02:19:13;;;;;;;3.17;1.05;;;11.20;99.90;;;10.57;100.00;101319.03;4119640;28;20046;-69
2024/03/19 02:21:14;;;;;;;3.50;1.15;;;11.20;99.90;;;10.51;100.00;101321.44;4135771;28;20421;-69
2024/03/19 02:23:15;;;;;;;3.42;1.67;;;11.10;99.90;;;10.49;100.00;101331.25;4136601;28;20409;-69
2024/03/19 02:25:19;;;;;;;4.88;1.42;;;11.10;99.90;;;10.51;100.00;101324.06;4136744;28;20034;-69
2024/03/19 02:27:20;;;;;;;4.03;1.30;;;11.10;99.90;;;10.48;100.00;101321.72;4136446;28;20042;-69
2024/03/19 02:29:20;;;;;;;6.88;1.70;;;11.10;99.90;;;10.48;100.00;101327.78;4135488;28;20034;-69
2024/03/19 02:31:24;;;;;;;5.90;1.23;;;11.10;99.90;;;10.43;100.00;101313.38;4136250;28;20042;-69
2024/03/19 02:33:25;;;;;;;6.57;1.20;;;11.10;99.90;;;10.44;100.00;101315.03;4119686;28;20525;-69
2024/03/19 02:35:26;;;;;;;2.97;1.17;;;11.10;99.90;;;10.45;100.00;101314.06;4136612;28;20034;-69
2024/03/19 02:37:27;;;;;;;5.38;1.08;;;11.00;99.90;;;10.44;100.00;101302.69;4135075;28;20018;-69
2024/03/19 02:39:28;;;;;;;5.07;1.83;;;11.10;99.90;;;10.47;100.00;101310.31;4152113;28;20477;-69
2024/03/19 02:41:28;;;;;;;6.35;1.45;;;11.10;99.90;;;10.48;100.00;101300.59;4142499;28;20026;-69
2024/03/19 02:43:30;;;;;;;7.30;1.45;;;11.10;99.90;;;10.51;100.00;101305.59;4136239;28;20030;-69
2024/03/19 02:45:31;;;;;;;4.68;1.17;;;11.10;99.90;;;10.54;100.00;101313.22;4119172;28;20086;-69
2024/03/19 02:47:31;;;;;;;5.63;1.33;;;11.10;99.90;;;10.56;100.00;101313.91;4136227;28;20442;-69
2024/03/19 02:49:32;;;;;;;5.90;1.42;;;11.10;99.90;;;10.56;100.00;101311.28;4136288;28;20395;-69
2024/03/19 02:51:33;;;;;;;5.47;1.15;;;11.10;99.90;;;10.55;100.00;101309.59;4136380;28;20030;-69
2024/03/19 02:53:35;;;;;;;5.78;1.58;;;11.10;99.90;;;10.57;100.00;101310.31;4135255;28;20026;-69
2024/03/19 02:55:35;;;;;;;7.15;1.80;;;11.10;99.90;;;10.52;100.00;101302.81;4136147;28;20398;-69
2024/03/19 02:57:36;;;;;;;4.43;1.23;;;11.10;99.90;;;10.55;100.00;101307.78;4134973;28;20023;-69
2024/03/19 02:59:37;;;;;;;7.57;1.38;;;11.10;99.90;;;10.55;100.00;101301.69;4136435;28;20033;-69
2024/03/19 03:01:38;;;;;;;3.03;1.92;;;11.10;99.90;;;10.58;100.00;101309.31;4136148;28;20026;-69
2024/03/19 03:03:39;;;;;;;7.38;1.42;;;11.20;99.90;;;10.57;100.00;101301.56;4135911;28;20037;-69
2024/03/19 03:05:45;;;;;;;3.53;1.33;;;11.20;99.90;;;10.59;100.00;101304.88;4136251;28;20092;-71
2024/03/19 03:07:46;;;;;;;5.40;1.17;;;11.20;99.90;;;10.53;100.00;101293.94;4119020;28;20034;-70
2024/03/19 03:09:46;;;;;;;6.20;1.40;;;11.20;99.90;;;10.57;100.00;101298.91;4136057;28;20053;-69
2024/03/19 03:11:47;;;;;;;10.38;1.83;;;11.20;99.90;;;10.54;100.00;101300.84;4135700;28;20031;-69
2024/03/19 03:13:48;;;;;;;10.93;2.20;;;11.20;99.90;;;10.54;100.00;101300.03;4136185;28;20021;-70
2024/03/19 03:15:49;;;;;;;6.25;1.40;;;11.10;99.90;;;10.51;100.00;101295.84;4136297;28;20026;-69
2024/03/19 03:17:50;;;;;;;3.20;1.00;;;11.10;99.90;;;10.52;100.00;101296.69;4135047;28;20026;-69
2024/03/19 03:19:51;;;;;;;3.88;1.17;;;11.10;99.90;;;10.50;100.00;101296.00;4135958;28;20023;-70
2024/03/19 03:21:52;;;;;;;4.20;0.93;;;11.10;99.90;;;10.53;100.00;101295.72;4134845;28;20098;-69
2024/03/19 03:23:54;;;;;;;3.45;0.98;;;11.10;99.90;;;10.52;100.00;101300.16;4135854;28;20026;-69
2024/03/19 03:25:54;;;;;;;3.22;1.08;;;11.10;99.90;;;10.53;100.00;101306.28;4136112;28;20506;-69
2024/03/19 03:27:56;;;;;;;2.83;1.25;;;11.10;99.90;;;10.49;100.00;101305.72;4135785;28;20029;-69
2024/03/19 03:29:57;;;;;;;3.60;1.83;;;11.10;99.90;;;10.54;100.00;101316.66;4134430;28;20026;-69
2024/03/19 03:31:58;;;;;;;7.13;1.30;;;11.10;99.90;;;10.55;100.00;101314.88;4130541;28;20049;-69
2024/03/19 03:33:58;;;;;;;4.15;1.50;;;11.10;99.90;;;10.54;100.00;101315.88;4135919;28;20073;-69
2024/03/19 03:35:59;;;;;;;6.13;1.70;;;11.10;99.90;;;10.55;100.00;101318.34;4135791;28;20092;-69
2024/03/19 03:38:00;;;;;;;7.78;1.88;;;11.10;99.90;;;10.56;100.00;101316.53;4139766;28;20076;-69
2024/03/19 03:40:17;;;;;;;5.32;1.40;;;11.10;99.90;;;10.59;100.00;101318.91;4134844;28;20034;-69
2024/03/19 03:42:18;;;;;;;5.95;1.90;;;11.10;99.90;;;10.58;100.00;101319.88;4118234;28;20027;-69
2024/03/19 03:44:20;;;;;;;6.50;1.63;;;11.20;99.90;;;10.60;100.00;101309.19;4135709;28;20031;-69
2024/03/19 03:46:20;;;;;;;7.57;1.83;;;11.20;99.90;;;10.57;100.00;101312.09;4135987;28;20018;-69
2024/03/19 03:48:21;;;;;;;3.60;1.45;;;11.10;99.90;;;10.58;100.00;101311.94;4134629;28;20034;-69
2024/03/19 03:50:22;;;;;;;4.60;1.20;;;11.10;99.90;;;10.59;100.00;101313.63;4135848;28;20034;-69
2024/03/19 03:52:25;;;;;;;5.25;1.50;;;11.20;99.90;;;10.58;100.00;101298.75;4118302;28;20043;-69
2024/03/19 03:54:26;;;;;;;6.38;2.33;;;11.20;99.90;;;10.58;100.00;101301.41;4134284;28;20101;-69
2024/03/19 03:56:27;;;;;;;4.70;1.33;;;11.20;99.90;;;10.58;100.00;101306.69;4135793;28;20100;-69
2024/03/19 03:58:28;;;;;;;5.30;1.25;;;11.20;99.90;;;10.62;100.00;101305.44;4118236;28;20030;-69
2024/03/19 04:00:29;;;;;;;5.35;1.00;;;11.20;99.90;;;10.65;100.00;101314.84;4135606;28;20037;-69
2024/03/19 04:02:30;;;;;;;4.15;1.20;;;11.20;99.90;;;10.63;100.00;101312.38;4135740;28;20050;-69
2024/03/19 04:04:31;;;;;;;5.13;0.82;;;11.20;99.90;;;10.64;100.00;101326.38;4134460;28;20022;-69
2024/03/19 04:06:32;;;;;;;5.50;1.45;;;11.20;99.90;;;10.63;100.00;101324.72;4135698;28;20040;-69
2024/03/19 04:08:32;;;;;;;4.72;1.20;;;11.20;99.90;;;10.63;100.00;101324.72;4135501;28;20027;-69
2024/03/19 04:10:33;;;;;;;3.53;1.27;;;11.20;99.90;;;10.61;100.00;101309.03;4135714;28;20076;-69
2024/03/19 04:12:35;;;;;;;2.72;0.73;;;11.20;99.90;;;10.63;100.00;101314.19;4118282;28;20070;-69
2024/03/19 04:14:36;;;;;;;5.50;1.88;;;11.20;99.90;;;10.61;100.00;101322.22;4118313;28;20434;-69
2024/03/19 04:16:37;;;;;;;7.63;1.17;;;11.20;99.90;;;10.56;100.00;101311.28;4133139;28;20030;-69
2024/03/19 04:18:37;;;;;;;7.50;1.42;;;11.20;99.90;;;10.57;100.00;101312.94;4134690;28;20030;-69
2024/03/19 04:20:39;;;;;;;6.72;1.58;;;11.20;99.90;;;10.58;100.00;101314.59;4136546;28;20022;-69
2024/03/19 04:22:39;;;;;;;3.28;1.23;;;11.20;99.90;;;10.58;100.00;101319.88;4138717;28;20065;-69
2024/03/19 04:24:40;;;;;;;4.40;1.00;;;11.20;99.90;;;10.56;100.00;101311.28;4138544;28;20027;-69
2024/03/19 04:26:41;;;;;;;7.22;1.23;;;11.20;99.90;;;10.56;100.00;101319.19;4138282;28;20040;-69
2024/03/19 04:28:42;;;;;;;4.40;0.90;;;11.10;99.90;;;10.47;100.00;101293.66;4137189;28;20105;-69
2024/03/19 04:30:43;;;;;;;7.78;1.33;;;11.10;99.90;;;10.52;100.00;101307.25;4138485;28;20022;-69
2024/03/19 04:32:44;;;;;;;8.07;1.70;;;11.10;99.90;;;10.48;100.00;101301.41;4120820;28;20035;-69
2024/03/19 04:34:44;;;;;;;7.38;1.75;;;11.10;99.90;;;10.48;100.00;101301.41;4121158;28;20038;-70
2024/03/19 04:36:45;;;;;;;9.25;1.20;;;11.10;99.90;;;10.48;100.00;101305.88;4138547;28;20026;-70
2024/03/19 04:38:46;;;;;;;4.90;0.93;;;11.10;99.90;;;10.51;100.00;101301.13;4147434;28;20061;-69
2024/03/19 04:40:47;;;;;;;9.20;1.45;;;11.10;99.90;;;10.58;100.00;101311.94;4151891;28;20441;-69
2024/03/19 04:42:48;;;;;;;4.80;1.52;;;11.10;99.90;;;10.57;100.00;101305.03;4138130;28;20446;-69
2024/03/19 04:44:49;;;;;;;2.00;0.85;;;11.10;99.90;;;10.55;100.00;101304.31;4138226;28;20026;-69
2024/03/19 04:46:50;;;;;;;4.32;1.05;;;11.10;99.90;;;10.57;100.00;101306.84;4138438;28;20413;-69
2024/03/19 04:48:50;;;;;;;3.20;1.75;;;11.20;99.90;;;10.55;100.00;101301.69;4138126;28;20034;-70
2024/03/19 04:50:51;;;;;;;3.17;1.23;;;11.20;99.90;;;10.59;100.00;101297.78;4120656;28;20027;-69
2024/03/19 04:52:52;;;;;;;6.70;2.08;;;11.20;99.90;;;10.59;100.00;101297.78;4138446;28;20019;-70
2024/03/19 04:54:53;;;;;;;4.07;0.80;;;11.20;99.90;;;10.54;100.00;101292.94;4138290;28;20022;-69
2024/03/19 04:56:54;;;;;;;5.72;1.50;;;11.10;99.90;;;10.53;100.00;101293.09;4136557;28;20027;-69
2024/03/19 04:58:55;;;;;;;5.82;1.35;;;11.20;99.90;;;10.54;100.00;101305.31;4137887;28;20031;-69
2024/03/19 05:00:56;;;;;;;4.05;1.10;;;11.20;99.90;;;10.52;100.00;101302.81;4120748;28;20030;-69
2024/03/19 05:02:57;;;;;;;4.30;0.80;;;11.10;99.90;;;10.52;100.00;101301.97;4137921;28;20041;-69
2024/03/19 05:04:58;;;;;;;6.22;1.00;;;11.10;99.90;;;10.52;100.00;101307.25;4137871;28;20088;-69
2024/03/19 05:06:59;;;;;;;4.28;0.85;;;11.10;99.90;;;10.52;100.00;101307.25;4137757;28;20031;-69
2024/03/19 05:09:00;;;;;;;3.33;0.90;;;11.10;99.90;;;10.51;100.00;101300.31;4138086;28;20030;-69
2024/03/19 05:11:00;;;;;;;5.65;1.80;;;11.10;99.90;;;10.52;100.00;101294.88;4136421;28;20038;-69
2024/03/19 05:13:01;;;;;;;4.50;1.55;;;11.10;99.90;;;10.53;100.00;101298.38;4137714;28;20068;-69
2024/03/19 05:15:06;;;;;;;3.75;1.20;;;11.10;99.90;;;10.52;100.00;101299.31;4137627;28;20498;-69
2024/03/19 05:17:07;;;;;;;7.00;1.40;;;11.10;99.90;;;10.52;100.00;101294.06;4137666;28;20033;-69
2024/03/19 05:19:07;;;;;;;2.35;0.65;;;11.10;99.90;;;10.51;100.00;101295.84;4137809;28;20390;-69
2024/03/19 05:21:08;;;;;;;3.28;1.00;;;11.10;99.90;;;10.50;100.00;101288.09;4137660;28;20077;-69
2024/03/19 05:23:09;;;;;;;3.85;0.68;;;11.10;99.90;;;10.52;100.00;101296.69;4137527;28;20493;-69
2024/03/19 05:25:10;;;;;;;2.88;0.90;;;11.10;99.90;;;10.49;100.00;101291.69;4137742;28;20054;-69
2024/03/19 05:27:11;;;;;;;3.38;1.02;;;11.10;99.90;;;10.49;100.00;101296.97;4136418;28;20030;-69
2024/03/19 05:29:12;;;;;;;2.95;0.80;;;11.10;99.90;;;10.47;100.00;101296.28;4137495;28;20482;-69
2024/03/19 05:31:25;;;;;;;6.03;1.50;;;11.00;99.90;;;10.47;100.00;101299.78;4137038;28;20046;-69
2024/03/19 05:33:26;;;;;;;3.55;1.00;;;11.00;99.90;;;10.45;100.00;101306.97;4136847;28;20034;-70
2024/03/19 05:35:27;;;;;;;3.25;1.20;;;11.00;99.90;;;10.43;100.00;101295.75;4135227;28;20014;-70
2024/03/19 05:37:28;;;;;;;2.33;0.90;;;11.10;99.90;;;10.47;100.00;101302.41;4137267;28;20026;-69
2024/03/19 05:39:28;;;;;;;2.03;0.80;;;11.10;99.90;;;10.50;100.00;101311.84;4151971;28;20505;-70
2024/03/19 05:41:31;;;;;;;5.53;1.13;;;11.00;99.90;;;10.49;100.00;101312.81;4146055;28;20033;-69
2024/03/19 05:43:32;;;;;;;6.68;1.42;;;11.10;99.90;;;10.49;100.00;101307.53;4136070;28;20509;-69
2024/03/19 05:45:34;;;;;;;10.25;1.75;;;11.10;99.90;;;10.48;100.00;101300.59;4136938;28;20030;-69
2024/03/19 05:47:34;;;;;;;4.03;1.40;;;11.10;99.90;;;10.50;100.00;101309.19;4139012;28;20039;-69
2024/03/19 05:49:35;;;;;;;8.18;1.85;;;11.10;99.90;;;10.50;100.00;101312.69;4153585;28;20437;-69
2024/03/19 05:51:36;;;;;;;7.63;1.30;;;11.10;99.90;;;10.51;100.00;101306.41;4145425;28;20022;-69
2024/03/19 05:53:38;;;;;;;6.47;1.60;;;11.10;99.90;;;10.49;100.00;101308.34;4137282;28;20033;-69
2024/03/19 05:55:39;;;;;;;5.15;1.25;;;11.10;99.90;;;10.52;100.00;101313.34;4119663;28;20022;-70
2024/03/19 05:57:40;;;;;;;4.75;1.33;;;11.10;99.90;;;10.53;100.00;101308.91;4119511;28;20057;-69
2024/03/19 05:59:40;;;;;;;4.38;1.20;;;11.10;99.90;;;10.53;100.00;101312.38;4137118;28;20026;-70
2024/03/19 06:01:41;;;;;;;3.75;1.15;;;11.10;99.90;;;10.57;100.00;101318.22;4137116;28;20077;-69
2024/03/19 06:03:43;;;;;;;5.72;1.20;;;11.10;99.90;;;10.55;100.00;101317.50;4136701;28;20030;-69
2024/03/19 06:05:43;;;;;;;3.83;1.17;;;11.10;99.90;;;10.60;100.00;101325.00;4135934;28;20036;-69
2024/03/19 06:07:44;;;;;;;2.42;1.13;;;11.20;99.90;;;10.58;100.00;101322.50;4137001;28;20034;-69
2024/03/19 06:09:46;;;;;;;5.78;1.60;;;11.20;99.90;;;10.60;100.00;101323.22;4135989;28;20035;-70
2024/03/19 06:11:47;;;;;;;8.05;2.03;;;11.20;99.90;;;10.60;100.00;101331.13;4136522;28;20018;-69
2024/03/19 06:13:49;;;;;;;7.50;1.20;;;11.20;99.90;;;10.63;100.00;101341.41;4137105;28;20038;-69
2024/03/19 06:15:50;;;;;;;6.40;1.50;;;11.20;99.90;;;10.65;100.00;101338.59;4136867;28;20026;-69
2024/03/19 06:17:51;;;;;;;6.55;1.40;;;11.20;99.90;;;10.63;100.00;101337.91;4135558;28;20030;-69
2024/03/19 06:19:52;;;;;;;5.22;1.30;;;11.20;99.90;;;10.64;100.00;101343.03;4119303;28;20085;-69
2024/03/19 06:21:53;;;;;;;6.05;1.63;;;11.20;99.90;;;10.66;100.00;101356.94;4119400;28;20034;-69
2024/03/19 06:23:54;;;;;;;6.95;1.48;;;11.20;99.90;;;10.64;100.00;101353.59;4111307;28;20068;-69
2024/03/19 06:25:55;;;;;;;3.90;1.05;;;11.30;99.90;;;10.66;100.00;101362.22;4136714;28;20038;-69
2024/03/19 06:27:55;;;;;;;2.55;1.23;;;11.30;99.90;;;10.66;100.00;101362.22;4136238;28;20054;-69
2024/03/19 06:29:56;;;;;;;4.40;1.00;;;11.30;99.90;;;10.70;100.00;101368.03;4135543;28;20434;-69
2024/03/19 06:31:57;;;;;;;5.63;1.10;;;11.30;99.90;;;10.73;100.00;101367.75;4136368;28;20541;-69
2024/03/19 06:33:58;;;;;;;3.67;1.30;;;11.30;99.90;;;10.77;100.00;101366.50;4119451;28;20031;-69
2024/03/19 06:35:59;;;;;;;3.50;0.77;;;11.30;99.90;;;10.78;100.00;101370.81;4136493;28;20023;-69
2024/03/19 06:38:04;;;;;;;8.43;1.27;;;11.30;99.90;;;10.81;100.00;101365.25;4141084;28;20433;-69
2024/03/19 06:40:06;;;;;;;4.22;1.67;;;11.40;99.90;;;10.87;100.00;101364.69;4135492;28;20037;-69
2024/03/19 06:42:07;;;;;;;6.45;1.70;;;11.40;99.90;;;10.91;100.00;101372.16;4140987;28;20036;-69
2024/03/19 06:44:08;;;;;;;3.55;1.10;;;11.50;99.90;;;10.95;100.00;101378.00;4135924;28;20022;-70
2024/03/19 06:46:09;;;;;;;3.92;1.15;;;11.50;99.90;;;10.97;100.00;101370.75;4135336;28;20026;-70
2024/03/19 06:48:10;;;;;;;4.45;0.95;;;11.60;99.90;;;11.03;100.00;101376.28;4136302;28;20036;-69
2024/03/19 06:50:13;;;;;;;6.15;1.35;;;11.50;99.90;;;11.06;100.00;101372.53;4136301;28;20033;-70
2024/03/19 06:52:15;;;;;;;4.28;1.38;;;11.60;99.90;;;11.08;100.00;101370.56;4118761;28;20031;-69
2024/03/19 06:54:16;;;;;;;7.55;1.85;;;11.60;99.90;;;11.08;100.00;101378.50;4136626;28;20061;-69
2024/03/19 06:56:17;;;;;;;6.25;1.10;;;11.60;99.90;;;11.11;100.00;101365.00;4136343;28;20030;-69
2024/03/19 06:58:18;;;;;;;4.60;1.02;;;11.70;99.90;;;11.15;100.00;101354.97;4136157;28;20029;-69
2024/03/19 07:00:19;;;;;;;4.50;1.20;;;11.70;99.90;;;11.17;100.00;101356.50;4134877;28;20030;-69
2024/03/19 07:02:19;;;;;;;4.47;1.45;;;11.70;99.90;;;11.23;100.00;101361.19;4136203;28;20030;-69
2024/03/19 07:04:21;;;;;;;3.80;1.10;;;11.80;99.90;;;11.28;100.00;101355.50;4134727;28;20165;-69
2024/03/19 07:06:22;;;;;;;3.20;0.93;;;11.90;99.90;;;11.31;100.00;101347.28;4136162;28;20032;-69
2024/03/19 07:08:24;;;;;;;3.65;0.90;;;11.90;99.90;;;11.38;100.00;101353.66;4134781;28;20042;-69
2024/03/19 07:10:28;;;;;;;2.97;1.15;;;11.90;99.90;;;11.45;100.00;101360.00;4135058;28;20022;-69
2024/03/19 07:12:29;;;;;;;4.57;0.90;;;12.00;99.90;;;11.51;100.00;101359.41;4135768;28;20022;-69
2024/03/19 07:14:30;;;;;;;5.05;0.90;;;12.00;99.90;;;11.56;100.00;101363.28;4134946;28;20442;-69
2024/03/19 07:16:34;;;;;;;3.25;0.80;;;12.10;99.90;;;11.67;100.00;101370.19;4136000;28;20031;-69
2024/03/19 07:18:35;;;;;;;3.33;1.38;;;12.10;99.90;;;11.72;100.00;101364.47;4136156;28;20039;-70
2024/03/19 07:20:38;;;;;;;3.92;1.10;;;12.20;99.90;;;11.83;100.00;101373.03;4134939;28;20034;-69
2024/03/19 07:22:42;;;;;;;4.95;0.98;;;12.30;99.90;;;11.88;100.00;101370.78;4135943;28;20113;-69
2024/03/19 07:24:43;;;;;;;6.28;1.15;;;12.40;99.90;;;11.95;100.00;101365.72;4134778;28;20081;-69
2024/03/19 07:26:44;;;;;;;5.68;1.20;;;12.40;99.90;;;12.00;100.00;101374.06;4135679;28;20030;-69
2024/03/19 07:28:45;;;;;;;4.55;1.23;;;12.50;99.90;;;12.06;100.00;101381.38;4136005;28;20046;-69
2024/03/19 07:30:46;;;;;;;7.57;1.45;;;12.50;99.90;;;12.13;100.00;101377.13;4136117;28;20034;-69
2024/03/19 07:32:47;;;;;;;8.35;1.55;;;12.60;99.90;;;12.23;100.00;101385.00;4135526;28;20049;-69
2024/03/19 07:34:47;;;;;;;5.20;1.20;;;12.70;99.90;;;12.25;100.00;101373.28;4136016;28;20031;-69
2024/03/19 07:36:48;;;;;;;3.88;1.20;;;12.80;99.90;;;12.35;100.00;101384.63;4134502;28;20023;-69
2024/03/19 07:38:49;;;;;;;5.03;1.10;;;12.80;99.90;;;12.48;100.00;101390.38;4129351;28;20034;-69
2024/03/19 07:40:50;;;;;;;4.47;1.55;;;12.90;99.90;;;12.56;100.00;101384.31;4141812;28;20038;-69
2024/03/19 07:42:51;;;;;;;3.97;1.15;;;13.00;99.90;;;12.62;100.00;101386.34;4135754;28;20038;-69
2024/03/19 07:44:52;;;;;;;3.85;0.70;;;13.10;99.90;;;12.71;100.00;101388.06;4134771;28;20030;-69
2024/03/19 07:46:52;;;;;;;29.67;6.20;;;13.20;99.90;;;12.79;100.00;101385.47;4135974;28;20037;-69
2024/03/19 07:48:53;;;;;;;18.20;3.35;;;13.30;99.90;;;12.86;100.00;101385.69;4135619;28;20054;-69
2024/03/19 07:50:57;;;;;;;7.28;2.03;;;13.40;99.90;;;13.03;100.00;101390.13;4134636;28;20096;-69
2024/03/19 07:52:58;;;;;;;3.63;0.93;;;13.50;99.90;;;12.95;100.00;101395.38;4135622;28;20026;-69
2024/03/19 07:54:59;;;;;;;6.05;1.30;;;13.50;99.90;;;13.06;100.00;101390.63;4145980;28;20026;-69
2024/03/19 07:57:00;;;;;;;5.22;1.30;;;13.60;99.90;;;13.17;100.00;101393.03;4137308;28;20037;-69
2024/03/19 07:59:00;;;;;;;3.67;1.00;;;13.60;99.90;;;13.20;100.00;101403.31;4138016;28;20045;-69
2024/03/19 08:01:01;;;;;;;3.80;1.17;;;13.70;99.90;;;13.28;100.00;101402.56;4153875;28;20076;-69
2024/03/19 08:03:04;;;;;;;5.57;1.20;;;13.70;99.90;;;13.46;100.00;101399.84;4138924;28;20026;-69
2024/03/19 08:05:07;;;;;;;2.60;1.10;;;13.90;99.90;;;13.58;100.00;101395.91;4138715;28;20463;-69
2024/03/19 08:07:08;;;;;;;3.95;0.90;;;14.00;99.90;;;13.63;100.00;101391.78;4138887;28;20081;-69
2024/03/19 08:09:09;;;;;;;1.75;0.70;;;14.10;99.90;;;13.70;100.00;101397.28;4137583;28;20034;-69
2024/03/19 08:11:10;;;;;;;4.55;1.00;;;14.20;99.90;;;13.78;100.00;101399.97;4121407;28;20074;-69
2024/03/19 08:13:11;;;;;;;5.38;1.00;;;14.20;99.90;;;13.70;100.00;101394.63;4121103;28;20484;-69
2024/03/19 08:15:12;;;;;;;3.95;0.73;;;14.20;99.90;;;13.68;100.00;101405.38;4121485;28;20485;-69
2024/03/19 08:17:13;;;;;;;6.32;1.15;;;14.10;99.90;;;13.78;100.00;101413.22;4121438;28;20026;-69
2024/03/19 08:19:14;;;;;;;3.40;1.00;;;14.20;99.90;;;13.77;100.00;101406.25;4138675;28;20105;-69